Time,TemperatureF,DewpointF,PressureIn,WindDirection,WindDirectionDegrees,WindSpeedMPH,WindSpeedGustMPH,Humidity,HourlyPrecipIn,Conditions,Clouds,dailyrainin,SoftwareType,DateUTC
2013-10-09 00:01:00,56.5,47.6,30.02,North,0,0.0,0.0,72,0.00,,,0.00,WeatherCatV1.15B25,2013-10-09 05:01:00,
2013-10-09 00:06:00,56.3,47.4,30.02,North,0,0.0,0.0,72,0.00,,,0.00,WeatherCatV1.15B25,2013-10-09 05:06:00,
2013-10-09 00:11:00,56.2,47.3,30.02,North,0,0.0,0.0,72,0.00,,,0.00,WeatherCatV1.15B25,2013-10-09 05:11:00,
2013-10-09 00:16:00,56.2,47.7,30.02,North,0,0.0,0.0,73,0.00,,,0.00,WeatherCatV1.15B25,2013-10-09 05:16:00,
2013-10-09 00:21:00,56.1,47.6,30.02,North,0,0.0,0.0,73,0.00,,,0.00,WeatherCatV1.15B25,2013-10-09 05:21:00,
2013-10-09 00:26:00,56.1,47.6,30.02,North,0,0.0,0.0,73,0.00,,,0.00,WeatherCatV1.15B25,2013-10-09 05:26:00,
2013-10-09 00:31:00,56.1,47.6,30.02,North,0,0.0,0.0,73,0.00,,,0.00,WeatherCatV1.15B25,2013-10-09 05:31:00,
2013-10-09 00:36:00,56.2,47.7,30.02,North,0,0.0,0.0,73,0.00,,,0.00,WeatherCatV1.15B25,2013-10-09 05:36:00,
2013-10-09 00:41:00,56.2,47.7,30.02,North,0,0.0,0.0,73,0.00,,,0.00,WeatherCatV1.15B25,2013-10-09 05:41:00,
2013-10-09 00:46:00,56.1,47.6,30.02,North,0,0.0,0.0,73,0.00,,,0.00,WeatherCatV1.15B25,2013-10-09 05:46:00,
2013-10-09 00:51:00,56.0,47.5,30.02,North,0,0.0,0.0,73,0.00,,,0.00,WeatherCatV1.15B25,2013-10-09 05:51:00,
2013-10-09 00:56:00,56.0,47.5,30.02,North,0,0.0,0.0,73,0.00,,,0.00,WeatherCatV1.15B25,2013-10-09 05:56:00,
2013-10-09 01:01:00,56.0,47.5,30.02,North,0,0.0,0.0,73,0.00,,,0.00,WeatherCatV1.15B25,2013-10-09 06:01:00,
2013-10-09 01:06:00,55.9,47.7,30.02,North,0,0.0,0.0,74,0.00,,,0.00,WeatherCatV1.15B25,2013-10-09 06:06:00,
2013-10-09 01:11:00,56.0,47.8,30.02,North,0,0.0,0.0,74,0.00,,,0.00,WeatherCatV1.15B25,2013-10-09 06:11:00,
2013-10-09 01:16:00,56.0,47.8,30.01,North,0,0.0,0.0,74,0.00,,,0.00,WeatherCatV1.15B25,2013-10-09 06:16:00,
2013-10-09 01:21:00,56.1,47.9,30.01,North,0,0.0,0.0,74,0.00,,,0.00,WeatherCatV1.15B25,2013-10-09 06:21:00,
2013-10-09 01:26:00,56.2,48.0,30.01,North,0,0.0,0.0,74,0.00,,,0.00,WeatherCatV1.15B25,2013-10-09 06:26:00,
2013-10-09 01:31:00,56.3,48.1,30.01,North,0,0.0,0.0,74,0.00,,,0.00,WeatherCatV1.15B25,2013-10-09 06:31:00,
2013-10-09 01:36:00,56.4,48.2,30.01,North,0,0.0,4.0,74,0.00,,,0.00,WeatherCatV1.15B25,2013-10-09 06:36:00,
2013-10-09 01:41:00,56.4,48.2,30.01,North,0,0.0,2.0,74,0.00,,,0.00,WeatherCatV1.15B25,2013-10-09 06:41:00,
2013-10-09 01:46:00,56.3,48.1,30.01,North,0,0.0,0.0,74,0.00,,,0.00,WeatherCatV1.15B25,2013-10-09 06:46:00,
2013-10-09 01:51:00,56.2,48.0,30.01,North,0,0.0,4.0,74,0.00,,,0.00,WeatherCatV1.15B25,2013-10-09 06:51:00,
2013-10-09 01:56:00,56.1,47.9,30.02,North,0,0.0,0.0,74,0.00,,,0.00,WeatherCatV1.15B25,2013-10-09 06:56:00,
2013-10-09 02:01:00,56.0,47.8,30.02,North,0,0.0,0.0,74,0.00,,,0.00,WeatherCatV1.15B25,2013-10-09 07:01:00,
2013-10-09 02:06:00,55.8,47.6,30.02,North,0,0.0,0.0,74,0.00,,,0.00,WeatherCatV1.15B25,2013-10-09 07:06:00,
2013-10-09 02:11:00,55.5,47.3,30.02,North,0,0.0,0.0,74,0.00,,,0.00,WeatherCatV1.15B25,2013-10-09 07:11:00,
2013-10-09 02:16:00,55.1,47.3,30.02,North,0,0.0,0.0,75,0.00,,,0.00,WeatherCatV1.15B25,2013-10-09 07:16:00,
2013-10-09 02:21:00,54.9,47.1,30.02,North,0,0.0,0.0,75,0.00,,,0.00,WeatherCatV1.15B25,2013-10-09 07:21:00,
2013-10-09 02:26:00,54.6,47.2,30.02,North,0,0.0,0.0,76,0.00,,,0.00,WeatherCatV1.15B25,2013-10-09 07:26:00,
2013-10-09 02:31:00,54.5,47.4,30.02,North,0,0.0,0.0,77,0.00,,,0.00,WeatherCatV1.15B25,2013-10-09 07:31:00,
2013-10-09 02:36:00,54.3,47.2,30.02,North,0,0.0,0.0,77,0.00,,,0.00,WeatherCatV1.15B25,2013-10-09 07:36:00,
2013-10-09 02:41:00,54.1,47.4,30.02,North,0,0.0,0.0,78,0.00,,,0.00,WeatherCatV1.15B25,2013-10-09 07:41:00,
2013-10-09 02:46:00,54.0,47.3,30.02,North,0,0.0,0.0,78,0.00,,,0.00,WeatherCatV1.15B25,2013-10-09 07:46:00,
2013-10-09 02:51:00,54.0,47.6,30.01,North,0,0.0,0.0,79,0.00,,,0.00,WeatherCatV1.15B25,2013-10-09 07:51:00,
2013-10-09 02:56:00,54.1,47.7,30.01,North,0,0.0,0.0,79,0.00,,,0.00,WeatherCatV1.15B25,2013-10-09 07:56:00,
2013-10-09 03:01:00,54.2,47.8,30.02,North,0,0.0,0.0,79,0.00,,,0.00,WeatherCatV1.15B25,2013-10-09 08:01:00,
2013-10-09 03:06:00,54.3,47.9,30.01,North,0,0.0,4.0,79,0.00,,,0.00,WeatherCatV1.15B25,2013-10-09 08:06:00,
2013-10-09 03:11:00,54.3,47.9,30.01,North,0,0.0,8.0,79,0.00,,,0.00,WeatherCatV1.15B25,2013-10-09 08:11:00,
2013-10-09 03:16:00,54.4,48.0,30.01,North,0,0.0,8.0,79,0.00,,,0.00,WeatherCatV1.15B25,2013-10-09 08:16:00,
2013-10-09 03:21:00,54.3,47.9,30.01,North,0,0.0,2.0,79,0.00,,,0.00,WeatherCatV1.15B25,2013-10-09 08:21:00,
2013-10-09 03:26:00,54.2,47.8,30.01,North,0,0.0,2.0,79,0.00,,,0.00,WeatherCatV1.15B25,2013-10-09 08:26:00,
2013-10-09 03:31:00,54.2,48.2,30.01,North,0,0.0,0.0,80,0.00,,,0.00,WeatherCatV1.15B25,2013-10-09 08:31:00,
2013-10-09 03:36:00,54.1,48.1,30.01,North,0,0.0,0.0,80,0.00,,,0.00,WeatherCatV1.15B25,2013-10-09 08:36:00,
2013-10-09 03:41:00,53.9,47.9,30.02,North,0,0.0,0.0,80,0.00,,,0.00,WeatherCatV1.15B25,2013-10-09 08:41:00,
2013-10-09 03:46:00,53.7,47.7,30.02,North,0,0.0,0.0,80,0.00,,,0.00,WeatherCatV1.15B25,2013-10-09 08:46:00,
2013-10-09 03:51:00,53.5,47.5,30.02,North,0,0.0,0.0,80,0.00,,,0.00,WeatherCatV1.15B25,2013-10-09 08:51:00,
2013-10-09 03:56:00,53.3,47.3,30.02,North,0,0.0,0.0,80,0.00,,,0.00,WeatherCatV1.15B25,2013-10-09 08:56:00,
2013-10-09 04:01:00,53.0,47.0,30.02,North,0,0.0,0.0,80,0.00,,,0.00,WeatherCatV1.15B25,2013-10-09 09:01:00,
2013-10-09 04:06:00,52.7,47.0,30.02,North,0,0.0,0.0,81,0.00,,,0.00,WeatherCatV1.15B25,2013-10-09 09:06:00,
2013-10-09 04:11:00,52.4,46.7,30.02,North,0,0.0,0.0,81,0.00,,,0.00,WeatherCatV1.15B25,2013-10-09 09:11:00,
2013-10-09 04:16:00,52.3,46.6,30.02,North,0,0.0,0.0,81,0.00,,,0.00,WeatherCatV1.15B25,2013-10-09 09:16:00,
2013-10-09 04:21:00,52.2,46.9,30.02,North,0,0.0,0.0,82,0.00,,,0.00,WeatherCatV1.15B25,2013-10-09 09:21:00,
2013-10-09 04:26:00,52.1,47.1,30.02,North,0,0.0,0.0,83,0.00,,,0.00,WeatherCatV1.15B25,2013-10-09 09:26:00,
2013-10-09 04:31:00,52.2,47.2,30.02,North,0,0.0,0.0,83,0.00,,,0.00,WeatherCatV1.15B25,2013-10-09 09:31:00,
2013-10-09 04:36:00,52.2,47.5,30.02,North,0,0.0,0.0,84,0.00,,,0.00,WeatherCatV1.15B25,2013-10-09 09:36:00,
2013-10-09 04:41:00,52.1,47.4,30.02,North,0,0.0,0.0,84,0.00,,,0.00,WeatherCatV1.15B25,2013-10-09 09:41:00,
2013-10-09 04:46:00,52.0,47.6,30.02,North,0,0.0,0.0,85,0.00,,,0.00,WeatherCatV1.15B25,2013-10-09 09:46:00,
2013-10-09 04:51:00,52.0,47.6,30.03,North,0,0.0,0.0,85,0.00,,,0.00,WeatherCatV1.15B25,2013-10-09 09:51:00,
2013-10-09 04:56:00,51.9,47.8,30.02,North,0,0.0,0.0,86,0.00,,,0.01,WeatherCatV1.15B25,2013-10-09 09:56:00,
2013-10-09 05:01:00,51.8,47.7,30.03,North,0,0.0,0.0,86,0.00,,,0.01,WeatherCatV1.15B25,2013-10-09 10:01:00,
2013-10-09 05:06:00,51.6,47.5,30.03,North,0,0.0,0.0,86,0.00,,,0.01,WeatherCatV1.15B25,2013-10-09 10:06:00,
2013-10-09 05:11:00,51.4,47.4,30.03,North,0,0.0,0.0,86,0.00,,,0.01,WeatherCatV1.15B25,2013-10-09 10:11:00,
2013-10-09 05:16:00,51.3,47.3,30.03,North,0,0.0,0.0,86,0.00,,,0.01,WeatherCatV1.15B25,2013-10-09 10:16:00,
2013-10-09 05:21:00,51.2,47.2,30.03,North,0,0.0,0.0,86,0.00,,,0.01,WeatherCatV1.15B25,2013-10-09 10:21:00,
2013-10-09 05:26:00,51.2,47.5,30.03,North,0,0.0,0.0,87,0.00,,,0.01,WeatherCatV1.15B25,2013-10-09 10:26:00,
2013-10-09 05:31:00,51.1,47.4,30.03,North,0,0.0,0.0,87,0.00,,,0.01,WeatherCatV1.15B25,2013-10-09 10:31:00,
2013-10-09 05:36:00,51.1,47.4,30.03,North,0,0.0,0.0,87,0.00,,,0.01,WeatherCatV1.15B25,2013-10-09 10:36:00,
2013-10-09 05:41:00,51.2,47.5,30.03,South,174,0.0,0.0,87,0.00,,,0.01,WeatherCatV1.15B25,2013-10-09 10:41:00,
2013-10-09 05:46:00,51.3,47.6,30.03,North,0,0.0,4.0,87,0.00,,,0.01,WeatherCatV1.15B25,2013-10-09 10:46:00,
2013-10-09 05:51:00,51.5,47.8,30.03,North,0,0.0,6.0,87,0.00,,,0.01,WeatherCatV1.15B25,2013-10-09 10:51:00,
2013-10-09 05:56:00,51.6,47.5,30.03,North,0,0.0,2.0,86,0.00,,,0.01,WeatherCatV1.15B25,2013-10-09 10:56:00,
2013-10-09 06:01:00,51.7,47.6,30.03,North,0,2.0,2.0,86,0.00,,,0.01,WeatherCatV1.15B25,2013-10-09 11:01:00,
2013-10-09 06:06:00,51.7,47.6,30.03,North,0,0.0,0.0,86,0.00,,,0.01,WeatherCatV1.15B25,2013-10-09 11:06:00,
2013-10-09 06:11:00,51.8,47.7,30.03,North,0,0.0,2.0,86,0.00,,,0.01,WeatherCatV1.15B25,2013-10-09 11:11:00,
2013-10-09 06:16:00,51.9,47.8,30.03,North,0,0.0,2.0,86,0.00,,,0.01,WeatherCatV1.15B25,2013-10-09 11:16:00,
2013-10-09 06:21:00,51.9,47.8,30.03,North,0,0.0,6.0,86,0.00,,,0.01,WeatherCatV1.15B25,2013-10-09 11:21:00,
2013-10-09 06:26:00,51.9,47.8,30.03,North,0,0.0,2.0,86,0.00,,,0.01,WeatherCatV1.15B25,2013-10-09 11:26:00,
2013-10-09 06:31:00,51.8,47.7,30.04,North,0,4.0,4.0,86,0.00,,,0.01,WeatherCatV1.15B25,2013-10-09 11:31:00,
2013-10-09 06:36:00,51.8,47.7,30.04,ESE,114,0.0,4.0,86,0.00,,,0.01,WeatherCatV1.15B25,2013-10-09 11:36:00,
2013-10-09 06:41:00,51.8,47.7,30.04,North,0,4.0,4.0,86,0.00,,,0.01,WeatherCatV1.15B25,2013-10-09 11:41:00,
2013-10-09 06:46:00,51.8,47.7,30.04,North,0,0.0,0.0,86,0.00,,,0.01,WeatherCatV1.15B25,2013-10-09 11:46:00,
2013-10-09 06:51:00,51.7,47.6,30.04,North,0,0.0,0.0,86,0.00,,,0.01,WeatherCatV1.15B25,2013-10-09 11:51:00,
2013-10-09 06:56:00,51.7,47.6,30.04,North,0,0.0,0.0,86,0.00,,,0.01,WeatherCatV1.15B25,2013-10-09 11:56:00,
2013-10-09 07:01:00,51.5,47.5,30.04,North,0,0.0,0.0,86,0.00,,,0.01,WeatherCatV1.15B25,2013-10-09 12:01:00,
2013-10-09 07:03:00,51.5,47.5,30.04,North,0,0.0,0.0,86,0.00,,,0.01,WeatherCatV1.15B25,2013-10-09 12:03:00,
2013-10-09 07:08:00,51.4,47.4,30.04,North,0,0.0,0.0,86,0.00,,,0.01,WeatherCatV1.15B25,2013-10-09 12:08:00,
2013-10-09 07:13:00,51.3,47.3,30.04,North,0,0.0,0.0,86,0.00,,,0.01,WeatherCatV1.15B25,2013-10-09 12:13:00,
2013-10-09 07:18:00,51.2,47.2,30.04,North,0,0.0,0.0,86,0.00,,,0.01,WeatherCatV1.15B25,2013-10-09 12:18:00,
2013-10-09 07:23:00,51.2,47.5,30.04,North,0,0.0,0.0,87,0.00,,,0.01,WeatherCatV1.15B25,2013-10-09 12:23:00,
2013-10-09 07:28:00,51.2,47.5,30.05,North,0,0.0,0.0,87,0.00,,,0.01,WeatherCatV1.15B25,2013-10-09 12:28:00,
2013-10-09 07:33:00,51.2,47.5,30.05,North,0,0.0,0.0,87,0.00,,,0.01,WeatherCatV1.15B25,2013-10-09 12:33:00,
2013-10-09 07:38:00,51.2,47.5,30.05,North,0,0.0,0.0,87,0.00,,,0.01,WeatherCatV1.15B25,2013-10-09 12:38:00,
2013-10-09 07:43:00,51.1,47.4,30.05,North,0,0.0,0.0,87,0.00,,,0.01,WeatherCatV1.15B25,2013-10-09 12:43:00,
2013-10-09 07:48:00,51.2,47.5,30.05,North,0,0.0,0.0,87,0.00,,,0.01,WeatherCatV1.15B25,2013-10-09 12:48:00,
2013-10-09 07:53:00,51.2,47.5,30.05,North,0,0.0,0.0,87,0.00,,,0.01,WeatherCatV1.15B25,2013-10-09 12:53:00,
2013-10-09 07:58:00,51.3,47.6,30.05,North,0,0.0,0.0,87,0.00,,,0.01,WeatherCatV1.15B25,2013-10-09 12:58:00,
2013-10-09 08:03:00,51.4,47.7,30.05,North,0,0.0,0.0,87,0.00,,,0.01,WeatherCatV1.15B25,2013-10-09 13:03:00,
2013-10-09 08:08:00,51.5,48.1,30.06,North,0,0.0,0.0,88,0.00,,,0.01,WeatherCatV1.15B25,2013-10-09 13:08:00,
2013-10-09 08:13:00,51.7,48.3,30.06,North,0,0.0,0.0,88,0.00,,,0.01,WeatherCatV1.15B25,2013-10-09 13:13:00,
2013-10-09 08:18:00,51.8,48.4,30.06,North,0,0.0,0.0,88,0.00,,,0.01,WeatherCatV1.15B25,2013-10-09 13:18:00,
2013-10-09 08:23:00,52.1,48.7,30.06,North,0,0.0,4.0,88,0.00,,,0.01,WeatherCatV1.15B25,2013-10-09 13:23:00,
2013-10-09 08:28:00,52.4,49.0,30.06,North,0,0.0,0.0,88,0.00,,,0.01,WeatherCatV1.15B25,2013-10-09 13:28:00,
2013-10-09 08:33:00,53.0,49.5,30.06,North,0,0.0,0.0,88,0.00,,,0.01,WeatherCatV1.15B25,2013-10-09 13:33:00,
2013-10-09 08:38:00,53.5,49.7,30.06,North,0,0.0,0.0,87,0.00,,,0.01,WeatherCatV1.15B25,2013-10-09 13:38:00,
2013-10-09 08:43:00,54.0,50.2,30.06,North,0,0.0,0.0,87,0.00,,,0.01,WeatherCatV1.15B25,2013-10-09 13:43:00,
2013-10-09 08:48:00,54.6,50.5,30.07,North,0,0.0,0.0,86,0.00,,,0.01,WeatherCatV1.15B25,2013-10-09 13:48:00,
2013-10-09 08:53:00,55.3,51.2,30.07,North,0,0.0,0.0,86,0.00,,,0.01,WeatherCatV1.15B25,2013-10-09 13:53:00,
2013-10-09 08:58:00,56.0,51.6,30.07,North,0,0.0,0.0,85,0.00,,,0.01,WeatherCatV1.15B25,2013-10-09 13:58:00,
2013-10-09 09:03:00,56.8,52.0,30.07,North,0,0.0,0.0,84,0.00,,,0.01,WeatherCatV1.15B25,2013-10-09 14:03:00,
2013-10-09 09:08:00,57.5,52.0,30.07,North,0,4.0,6.0,82,0.00,,,0.01,WeatherCatV1.15B25,2013-10-09 14:08:00,
2013-10-09 09:13:00,58.2,52.1,30.07,North,0,0.0,0.0,80,0.00,,,0.01,WeatherCatV1.15B25,2013-10-09 14:13:00,
2013-10-09 09:18:00,59.0,52.5,30.07,North,0,0.0,0.0,79,0.00,,,0.01,WeatherCatV1.15B25,2013-10-09 14:18:00,
2013-10-09 09:23:00,59.4,52.5,30.07,North,0,0.0,6.0,78,0.00,,,0.01,WeatherCatV1.15B25,2013-10-09 14:23:00,
2013-10-09 09:28:00,60.0,52.0,30.07,North,0,0.0,4.0,75,0.00,,,0.01,WeatherCatV1.15B25,2013-10-09 14:28:00,
2013-10-09 09:33:00,60.7,52.0,30.07,North,0,2.0,2.0,73,0.00,,,0.01,WeatherCatV1.15B25,2013-10-09 14:33:00,
2013-10-09 09:38:00,61.3,52.2,30.07,North,0,0.0,0.0,72,0.00,,,0.01,WeatherCatV1.15B25,2013-10-09 14:38:00,
2013-10-09 09:43:00,61.8,51.9,30.07,North,0,6.0,8.0,70,0.00,,,0.01,WeatherCatV1.15B25,2013-10-09 14:43:00,
2013-10-09 09:48:00,62.3,52.0,30.07,North,0,0.0,10.0,69,0.00,,,0.01,WeatherCatV1.15B25,2013-10-09 14:48:00,
2013-10-09 09:53:00,63.0,52.3,30.07,North,0,0.0,6.0,68,0.00,,,0.01,WeatherCatV1.15B25,2013-10-09 14:53:00,
2013-10-09 09:58:00,63.5,52.3,30.07,North,0,0.0,8.0,67,0.00,,,0.01,WeatherCatV1.15B25,2013-10-09 14:58:00,
2013-10-09 10:03:00,64.0,52.8,30.07,North,0,0.0,0.0,67,0.00,,,0.01,WeatherCatV1.15B25,2013-10-09 15:03:00,
2013-10-09 10:08:00,64.6,53.0,30.08,North,0,0.0,0.0,66,0.00,,,0.01,WeatherCatV1.15B25,2013-10-09 15:08:00,
2013-10-09 10:13:00,65.2,52.3,30.08,North,0,10.0,18.0,63,0.00,,,0.01,WeatherCatV1.15B25,2013-10-09 15:13:00,
2013-10-09 10:18:00,65.7,52.3,30.08,North,0,8.0,8.0,62,0.00,,,0.01,WeatherCatV1.15B25,2013-10-09 15:18:00,
2013-10-09 10:23:00,66.3,52.4,30.08,North,0,6.0,10.0,61,0.00,,,0.01,WeatherCatV1.15B25,2013-10-09 15:23:00,
2013-10-09 10:28:00,66.8,52.9,30.08,North,0,0.0,8.0,61,0.00,,,0.01,WeatherCatV1.15B25,2013-10-09 15:28:00,
2013-10-09 10:33:00,67.3,52.9,30.07,North,0,8.0,8.0,60,0.00,,,0.01,WeatherCatV1.15B25,2013-10-09 15:33:00,
2013-10-09 10:38:00,67.7,52.8,30.08,North,0,2.0,4.0,59,0.00,,,0.01,WeatherCatV1.15B25,2013-10-09 15:38:00,
2013-10-09 10:43:00,68.1,53.2,30.08,North,0,8.0,8.0,59,0.00,,,0.01,WeatherCatV1.15B25,2013-10-09 15:43:00,
2013-10-09 10:48:00,68.3,52.9,30.08,North,0,0.0,12.0,58,0.00,,,0.01,WeatherCatV1.15B25,2013-10-09 15:48:00,
2013-10-09 10:53:00,68.6,53.2,30.08,North,0,0.0,10.0,58,0.00,,,0.01,WeatherCatV1.15B25,2013-10-09 15:53:00,
2013-10-09 10:58:00,69.1,54.2,30.08,North,0,4.0,8.0,59,0.00,,,0.01,WeatherCatV1.15B25,2013-10-09 15:58:00,
2013-10-09 11:03:00,69.2,53.3,30.08,North,0,2.0,8.0,57,0.00,,,0.01,WeatherCatV1.15B25,2013-10-09 16:03:00,
2013-10-09 11:08:00,69.4,53.5,30.08,NW,322,2.0,14.0,57,0.00,,,0.01,WeatherCatV1.15B25,2013-10-09 16:08:00,
2013-10-09 11:13:00,69.6,53.7,30.08,North,0,0.0,14.0,57,0.00,,,0.01,WeatherCatV1.15B25,2013-10-09 16:13:00,
2013-10-09 11:18:00,69.9,54.9,30.07,North,0,0.0,0.0,59,0.00,,,0.01,WeatherCatV1.15B25,2013-10-09 16:18:00,
2013-10-09 11:23:00,70.4,54.9,30.07,East,88,0.0,2.0,58,0.00,,,0.01,WeatherCatV1.15B25,2013-10-09 16:23:00,
2013-10-09 11:28:00,70.8,54.3,30.07,North,0,0.0,8.0,56,0.00,,,0.01,WeatherCatV1.15B25,2013-10-09 16:28:00,
2013-10-09 11:33:00,70.8,54.3,30.08,North,0,0.0,8.0,56,0.00,,,0.01,WeatherCatV1.15B25,2013-10-09 16:33:00,
2013-10-09 11:38:00,71.1,54.6,30.07,North,0,0.0,8.0,56,0.00,,,0.01,WeatherCatV1.15B25,2013-10-09 16:38:00,
2013-10-09 11:43:00,71.6,55.1,30.07,North,0,4.0,14.0,56,0.00,,,0.01,WeatherCatV1.15B25,2013-10-09 16:43:00,
2013-10-09 11:48:00,71.8,54.7,30.07,North,0,0.0,0.0,55,0.00,,,0.01,WeatherCatV1.15B25,2013-10-09 16:48:00,
2013-10-09 11:53:00,72.3,55.7,30.07,North,0,0.0,0.0,56,0.00,,,0.01,WeatherCatV1.15B25,2013-10-09 16:53:00,
2013-10-09 11:58:00,72.6,56.0,30.07,North,0,0.0,0.0,56,0.00,,,0.01,WeatherCatV1.15B25,2013-10-09 16:58:00,
2013-10-09 12:03:00,73.3,55.1,30.07,North,0,0.0,4.0,53,0.00,,,0.01,WeatherCatV1.15B25,2013-10-09 17:03:00,
2013-10-09 12:08:00,73.6,55.4,30.07,North,0,0.0,16.0,53,0.00,,,0.01,WeatherCatV1.15B25,2013-10-09 17:08:00,
2013-10-09 12:13:00,74.1,55.9,30.06,North,0,0.0,4.0,53,0.00,,,0.01,WeatherCatV1.15B25,2013-10-09 17:13:00,
2013-10-09 12:18:00,74.2,56.0,30.06,North,0,8.0,8.0,53,0.00,,,0.01,WeatherCatV1.15B25,2013-10-09 17:18:00,
2013-10-09 12:23:00,74.3,55.5,30.06,North,0,0.0,4.0,52,0.00,,,0.01,WeatherCatV1.15B25,2013-10-09 17:23:00,
2013-10-09 12:28:00,74.3,55.5,30.06,North,0,0.0,2.0,52,0.00,,,0.01,WeatherCatV1.15B25,2013-10-09 17:28:00,
2013-10-09 12:33:00,74.9,56.6,30.06,North,0,0.0,0.0,53,0.00,,,0.01,WeatherCatV1.15B25,2013-10-09 17:33:00,
2013-10-09 12:38:00,75.4,56.0,30.06,ESE,103,0.0,8.0,51,0.00,,,0.01,WeatherCatV1.15B25,2013-10-09 17:38:00,
2013-10-09 12:43:00,75.6,56.2,30.05,North,0,0.0,2.0,51,0.00,,,0.01,WeatherCatV1.15B25,2013-10-09 17:43:00,
2013-10-09 12:48:00,76.0,56.0,30.05,North,0,0.0,4.0,50,0.00,,,0.01,WeatherCatV1.15B25,2013-10-09 17:48:00,
2013-10-09 12:53:00,76.2,56.2,30.05,North,0,0.0,0.0,50,0.00,,,0.01,WeatherCatV1.15B25,2013-10-09 17:53:00,
2013-10-09 12:58:00,76.6,56.5,30.05,North,0,12.0,16.0,50,0.00,,,0.01,WeatherCatV1.15B25,2013-10-09 17:58:00,
2013-10-09 13:03:00,76.4,55.2,30.04,North,0,0.0,6.0,48,0.00,,,0.01,WeatherCatV1.15B25,2013-10-09 18:03:00,
2013-10-09 13:08:00,76.9,57.4,30.04,North,0,0.0,4.0,51,0.00,,,0.01,WeatherCatV1.15B25,2013-10-09 18:08:00,
2013-10-09 13:13:00,77.5,57.4,30.04,South,190,0.0,0.0,50,0.00,,,0.01,WeatherCatV1.15B25,2013-10-09 18:13:00,
2013-10-09 13:18:00,77.8,57.1,30.04,North,0,0.0,2.0,49,0.00,,,0.01,WeatherCatV1.15B25,2013-10-09 18:18:00,
2013-10-09 13:23:00,78.1,56.8,30.04,North,0,0.0,8.0,48,0.00,,,0.01,WeatherCatV1.15B25,2013-10-09 18:23:00,
2013-10-09 13:28:00,78.5,57.2,30.03,North,0,0.0,4.0,48,0.00,,,0.01,WeatherCatV1.15B25,2013-10-09 18:28:00,
2013-10-09 13:33:00,78.7,57.3,30.03,North,0,0.0,6.0,48,0.00,,,0.01,WeatherCatV1.15B25,2013-10-09 18:33:00,
2013-10-09 13:38:00,79.2,56.6,30.03,North,0,0.0,10.0,46,0.00,,,0.01,WeatherCatV1.15B25,2013-10-09 18:38:00,
2013-10-09 13:43:00,79.8,58.3,30.03,North,0,0.0,4.0,48,0.00,,,0.01,WeatherCatV1.15B25,2013-10-09 18:43:00,
2013-10-09 13:48:00,80.5,57.8,30.02,North,0,0.0,0.0,46,0.00,,,0.01,WeatherCatV1.15B25,2013-10-09 18:48:00,
2013-10-09 13:53:00,80.4,57.7,30.02,North,0,0.0,6.0,46,0.00,,,0.01,WeatherCatV1.15B25,2013-10-09 18:53:00,
2013-10-09 13:58:00,80.5,58.4,30.02,North,0,0.0,2.0,47,0.00,,,0.01,WeatherCatV1.15B25,2013-10-09 18:58:00,
2013-10-09 14:03:00,80.3,57.0,30.02,North,0,0.0,18.0,45,0.00,,,0.01,WeatherCatV1.15B25,2013-10-09 19:03:00,
2013-10-09 14:08:00,80.2,58.1,30.01,North,0,0.0,0.0,47,0.00,,,0.01,WeatherCatV1.15B25,2013-10-09 19:08:00,
2013-10-09 14:13:00,80.6,57.9,30.01,North,0,0.0,6.0,46,0.00,,,0.01,WeatherCatV1.15B25,2013-10-09 19:13:00,
2013-10-09 14:18:00,81.1,58.3,30.01,North,0,0.0,2.0,46,0.00,,,0.01,WeatherCatV1.15B25,2013-10-09 19:18:00,
2013-10-09 14:23:00,81.4,58.6,30.00,North,0,0.0,0.0,46,0.00,,,0.01,WeatherCatV1.15B25,2013-10-09 19:23:00,
2013-10-09 14:28:00,82.3,59.4,30.00,North,0,4.0,10.0,46,0.00,,,0.01,WeatherCatV1.15B25,2013-10-09 19:28:00,
2013-10-09 14:33:00,82.6,59.1,30.00,North,0,0.0,4.0,45,0.00,,,0.01,WeatherCatV1.15B25,2013-10-09 19:33:00,
2013-10-09 14:38:00,83.0,59.4,30.00,North,0,0.0,6.0,45,0.00,,,0.01,WeatherCatV1.15B25,2013-10-09 19:38:00,
2013-10-09 14:43:00,83.2,58.3,30.00,North,0,0.0,4.0,43,0.00,,,0.01,WeatherCatV1.15B25,2013-10-09 19:43:00,
2013-10-09 14:48:00,83.2,59.0,30.00,North,0,0.0,2.0,44,0.00,,,0.01,WeatherCatV1.15B25,2013-10-09 19:48:00,
2013-10-09 14:53:00,82.8,57.3,29.99,North,0,0.0,8.0,42,0.00,,,0.01,WeatherCatV1.15B25,2013-10-09 19:53:00,
2013-10-09 14:58:00,82.1,58.0,29.99,North,0,0.0,0.0,44,0.00,,,0.01,WeatherCatV1.15B25,2013-10-09 19:58:00,
2013-10-09 15:03:00,82.3,58.8,29.99,North,0,4.0,4.0,45,0.00,,,0.01,WeatherCatV1.15B25,2013-10-09 20:03:00,
2013-10-09 15:08:00,82.6,57.8,29.99,North,0,0.0,2.0,43,0.00,,,0.01,WeatherCatV1.15B25,2013-10-09 20:08:00,
2013-10-09 15:13:00,82.9,59.3,29.99,North,0,0.0,0.0,45,0.00,,,0.01,WeatherCatV1.15B25,2013-10-09 20:13:00,
2013-10-09 15:18:00,83.6,58.7,29.99,ESE,113,0.0,0.0,43,0.00,,,0.01,WeatherCatV1.15B25,2013-10-09 20:18:00,
2013-10-09 15:23:00,83.9,59.0,29.99,North,0,0.0,0.0,43,0.00,,,0.01,WeatherCatV1.15B25,2013-10-09 20:23:00,
2013-10-09 15:28:00,84.3,59.3,29.99,North,0,2.0,2.0,43,0.00,,,0.01,WeatherCatV1.15B25,2013-10-09 20:28:00,
2013-10-09 15:33:00,84.4,59.4,29.99,SSE,152,0.0,0.0,43,0.00,,,0.01,WeatherCatV1.15B25,2013-10-09 20:33:00,
2013-10-09 15:38:00,84.6,58.9,29.99,North,0,0.0,10.0,42,0.00,,,0.01,WeatherCatV1.15B25,2013-10-09 20:38:00,
2013-10-09 15:43:00,84.4,58.8,29.99,North,0,0.0,8.0,42,0.00,,,0.01,WeatherCatV1.15B25,2013-10-09 20:43:00,
2013-10-09 15:48:00,84.6,59.6,29.99,North,0,0.0,2.0,43,0.00,,,0.01,WeatherCatV1.15B25,2013-10-09 20:48:00,
2013-10-09 15:53:00,84.4,58.1,29.99,North,0,0.0,12.0,41,0.00,,,0.01,WeatherCatV1.15B25,2013-10-09 20:53:00,
2013-10-09 15:58:00,84.5,59.5,29.99,North,0,0.0,0.0,43,0.00,,,0.01,WeatherCatV1.15B25,2013-10-09 20:58:00,
2013-10-09 16:03:00,84.6,58.9,29.99,North,0,0.0,2.0,42,0.00,,,0.01,WeatherCatV1.15B25,2013-10-09 21:03:00,
2013-10-09 16:08:00,84.5,58.9,29.99,North,0,0.0,4.0,42,0.00,,,0.01,WeatherCatV1.15B25,2013-10-09 21:08:00,
2013-10-09 16:13:00,84.1,58.5,29.99,North,0,0.0,8.0,42,0.00,,,0.01,WeatherCatV1.15B25,2013-10-09 21:13:00,
2013-10-09 16:18:00,83.9,58.3,29.99,North,0,0.0,4.0,42,0.00,,,0.01,WeatherCatV1.15B25,2013-10-09 21:18:00,
2013-10-09 16:23:00,83.7,58.1,29.99,North,0,0.0,0.0,42,0.00,,,0.01,WeatherCatV1.15B25,2013-10-09 21:23:00,
2013-10-09 16:28:00,83.6,58.7,29.99,North,0,0.0,2.0,43,0.00,,,0.01,WeatherCatV1.15B25,2013-10-09 21:28:00,
2013-10-09 16:33:00,84.0,59.1,29.99,North,0,0.0,12.0,43,0.00,,,0.01,WeatherCatV1.15B25,2013-10-09 21:33:00,
2013-10-09 16:38:00,84.7,59.0,29.99,North,0,0.0,0.0,42,0.00,,,0.01,WeatherCatV1.15B25,2013-10-09 21:38:00,
2013-10-09 16:43:00,84.9,58.5,29.99,North,0,6.0,12.0,41,0.00,,,0.01,WeatherCatV1.15B25,2013-10-09 21:43:00,
2013-10-09 16:48:00,84.2,58.6,29.98,North,0,0.0,0.0,42,0.00,,,0.01,WeatherCatV1.15B25,2013-10-09 21:48:00,
2013-10-09 16:53:00,84.3,58.7,29.98,ESE,114,0.0,0.0,42,0.00,,,0.01,WeatherCatV1.15B25,2013-10-09 21:53:00,
2013-10-09 16:58:00,84.1,58.5,29.98,North,0,0.0,0.0,42,0.00,,,0.01,WeatherCatV1.15B25,2013-10-09 21:58:00,
2013-10-09 17:03:00,83.9,58.3,29.99,North,0,0.0,2.0,42,0.00,,,0.01,WeatherCatV1.15B25,2013-10-09 22:03:00,
2013-10-09 17:08:00,84.1,58.5,29.98,North,0,0.0,4.0,42,0.00,,,0.01,WeatherCatV1.15B25,2013-10-09 22:08:00,
2013-10-09 17:13:00,83.7,58.1,29.98,North,0,0.0,6.0,42,0.00,,,0.01,WeatherCatV1.15B25,2013-10-09 22:13:00,
2013-10-09 17:18:00,83.3,58.4,29.98,North,0,0.0,2.0,43,0.00,,,0.01,WeatherCatV1.15B25,2013-10-09 22:18:00,
2013-10-09 17:23:00,83.3,57.8,29.99,North,0,0.0,2.0,42,0.00,,,0.01,WeatherCatV1.15B25,2013-10-09 22:23:00,
2013-10-09 17:28:00,83.2,58.3,29.98,NNE,32,4.0,4.0,43,0.00,,,0.01,WeatherCatV1.15B25,2013-10-09 22:28:00,
2013-10-09 17:33:00,82.7,57.9,29.98,North,0,0.0,8.0,43,0.00,,,0.01,WeatherCatV1.15B25,2013-10-09 22:33:00,
2013-10-09 17:38:00,82.3,57.5,29.98,North,0,0.0,0.0,43,0.00,,,0.01,WeatherCatV1.15B25,2013-10-09 22:38:00,
2013-10-09 17:43:00,81.9,57.2,29.98,North,0,0.0,2.0,43,0.00,,,0.01,WeatherCatV1.15B25,2013-10-09 22:43:00,
2013-10-09 17:48:00,81.5,56.8,29.98,North,0,0.0,0.0,43,0.00,,,0.01,WeatherCatV1.15B25,2013-10-09 22:48:00,
2013-10-09 17:53:00,80.2,56.9,29.98,North,0,0.0,0.0,45,0.00,,,0.01,WeatherCatV1.15B25,2013-10-09 22:53:00,
2013-10-09 17:58:00,79.0,56.4,29.98,North,0,0.0,0.0,46,0.00,,,0.01,WeatherCatV1.15B25,2013-10-09 22:58:00,
2013-10-09 18:03:00,78.1,56.8,29.98,North,0,0.0,0.0,48,0.00,,,0.01,WeatherCatV1.15B25,2013-10-09 23:03:00,
2013-10-09 18:08:00,77.3,56.6,29.98,North,0,0.0,0.0,49,0.00,,,0.01,WeatherCatV1.15B25,2013-10-09 23:08:00,
2013-10-09 18:13:00,76.5,56.5,29.98,North,0,0.0,0.0,50,0.00,,,0.01,WeatherCatV1.15B25,2013-10-09 23:13:00,
2013-10-09 18:18:00,75.9,57.0,29.98,North,0,0.0,0.0,52,0.00,,,0.01,WeatherCatV1.15B25,2013-10-09 23:18:00,
2013-10-09 18:23:00,75.4,56.5,29.98,North,0,0.0,0.0,52,0.00,,,0.01,WeatherCatV1.15B25,2013-10-09 23:23:00,
2013-10-09 18:28:00,75.0,56.7,29.98,North,0,0.0,0.0,53,0.00,,,0.01,WeatherCatV1.15B25,2013-10-09 23:28:00,
2013-10-09 18:33:00,74.5,56.7,29.98,North,0,0.0,0.0,54,0.00,,,0.01,WeatherCatV1.15B25,2013-10-09 23:33:00,
2013-10-09 18:38:00,74.1,56.4,29.98,North,0,0.0,0.0,54,0.00,,,0.01,WeatherCatV1.15B25,2013-10-09 23:38:00,
2013-10-09 18:43:00,73.7,56.5,29.98,North,0,0.0,0.0,55,0.00,,,0.01,WeatherCatV1.15B25,2013-10-09 23:43:00,
2013-10-09 18:48:00,73.3,56.1,29.98,North,0,0.0,0.0,55,0.00,,,0.01,WeatherCatV1.15B25,2013-10-09 23:48:00,
2013-10-09 18:53:00,73.0,56.4,29.98,North,0,0.0,0.0,56,0.00,,,0.01,WeatherCatV1.15B25,2013-10-09 23:53:00,
2013-10-09 18:58:00,72.5,55.9,29.98,North,0,0.0,0.0,56,0.00,,,0.01,WeatherCatV1.15B25,2013-10-09 23:58:00,
2013-10-09 19:03:00,72.1,56.0,29.98,North,0,0.0,0.0,57,0.00,,,0.01,WeatherCatV1.15B25,2013-10-10 00:03:00,
2013-10-09 19:08:00,71.7,55.6,29.98,North,0,0.0,0.0,57,0.00,,,0.01,WeatherCatV1.15B25,2013-10-10 00:08:00,
2013-10-09 19:13:00,71.3,55.7,29.98,North,0,0.0,0.0,58,0.00,,,0.01,WeatherCatV1.15B25,2013-10-10 00:13:00,
2013-10-09 19:18:00,71.0,55.9,29.98,North,0,0.0,0.0,59,0.00,,,0.01,WeatherCatV1.15B25,2013-10-10 00:18:00,
2013-10-09 19:23:00,70.6,56.0,29.98,North,0,0.0,0.0,60,0.00,,,0.01,WeatherCatV1.15B25,2013-10-10 00:23:00,
2013-10-09 19:28:00,70.3,56.2,29.98,North,0,0.0,0.0,61,0.00,,,0.01,WeatherCatV1.15B25,2013-10-10 00:28:00,
2013-10-09 19:33:00,70.0,55.9,29.98,North,0,0.0,0.0,61,0.00,,,0.01,WeatherCatV1.15B25,2013-10-10 00:33:00,
2013-10-09 19:38:00,69.8,56.2,29.98,North,0,0.0,0.0,62,0.00,,,0.01,WeatherCatV1.15B25,2013-10-10 00:38:00,
2013-10-09 19:43:00,69.5,56.3,29.98,North,0,0.0,0.0,63,0.00,,,0.01,WeatherCatV1.15B25,2013-10-10 00:43:00,
2013-10-09 19:48:00,69.2,56.1,29.98,North,0,0.0,0.0,63,0.00,,,0.01,WeatherCatV1.15B25,2013-10-10 00:48:00,
2013-10-09 19:53:00,69.0,56.3,29.98,North,0,0.0,0.0,64,0.00,,,0.01,WeatherCatV1.15B25,2013-10-10 00:53:00,
2013-10-09 19:58:00,68.8,56.1,29.98,North,0,0.0,0.0,64,0.00,,,0.01,WeatherCatV1.15B25,2013-10-10 00:58:00,
2013-10-09 20:03:00,68.6,56.4,29.98,North,0,0.0,0.0,65,0.00,,,0.01,WeatherCatV1.15B25,2013-10-10 01:03:00,
2013-10-09 20:08:00,68.3,56.1,29.98,North,0,0.0,0.0,65,0.00,,,0.01,WeatherCatV1.15B25,2013-10-10 01:08:00,
2013-10-09 20:13:00,68.1,55.9,29.99,North,0,0.0,0.0,65,0.00,,,0.01,WeatherCatV1.15B25,2013-10-10 01:13:00,
2013-10-09 20:18:00,67.9,56.1,29.98,North,0,0.0,0.0,66,0.00,,,0.01,WeatherCatV1.15B25,2013-10-10 01:18:00,
2013-10-09 20:23:00,67.7,55.9,29.98,ESE,111,0.0,0.0,66,0.00,,,0.01,WeatherCatV1.15B25,2013-10-10 01:23:00,
2013-10-09 20:28:00,67.5,55.7,29.98,North,0,0.0,0.0,66,0.00,,,0.01,WeatherCatV1.15B25,2013-10-10 01:28:00,
2013-10-09 20:33:00,67.3,55.5,29.98,ESE,112,0.0,0.0,66,0.00,,,0.01,WeatherCatV1.15B25,2013-10-10 01:33:00,
2013-10-09 20:38:00,67.2,55.9,29.98,North,0,0.0,0.0,67,0.00,,,0.01,WeatherCatV1.15B25,2013-10-10 01:38:00,
2013-10-09 20:43:00,67.0,55.7,29.98,North,0,0.0,0.0,67,0.00,,,0.01,WeatherCatV1.15B25,2013-10-10 01:43:00,
2013-10-09 20:48:00,66.8,55.5,29.98,ESE,119,0.0,0.0,67,0.00,,,0.01,WeatherCatV1.15B25,2013-10-10 01:48:00,
2013-10-09 20:53:00,66.6,55.3,29.98,ESE,119,0.0,0.0,67,0.00,,,0.01,WeatherCatV1.15B25,2013-10-10 01:53:00,
2013-10-09 20:58:00,66.5,55.2,29.98,SE,125,0.0,0.0,67,0.00,,,0.01,WeatherCatV1.15B25,2013-10-10 01:58:00,
2013-10-09 21:03:00,66.4,55.1,29.98,SE,126,0.0,0.0,67,0.00,,,0.01,WeatherCatV1.15B25,2013-10-10 02:03:00,
2013-10-09 21:08:00,66.3,55.0,29.99,SE,131,0.0,0.0,67,0.00,,,0.01,WeatherCatV1.15B25,2013-10-10 02:08:00,
2013-10-09 21:13:00,66.1,54.8,29.99,SE,131,0.0,0.0,67,0.00,,,0.01,WeatherCatV1.15B25,2013-10-10 02:13:00,
2013-10-09 21:18:00,65.8,54.5,29.99,North,0,0.0,0.0,67,0.00,,,0.01,WeatherCatV1.15B25,2013-10-10 02:18:00,
2013-10-09 21:23:00,65.6,54.3,29.99,North,0,0.0,0.0,67,0.00,,,0.01,WeatherCatV1.15B25,2013-10-10 02:23:00,
2013-10-09 21:28:00,65.4,54.1,29.99,North,0,0.0,0.0,67,0.00,,,0.01,WeatherCatV1.15B25,2013-10-10 02:28:00,
2013-10-09 21:33:00,65.2,54.0,29.99,North,0,0.0,0.0,67,0.00,,,0.01,WeatherCatV1.15B25,2013-10-10 02:33:00,
2013-10-09 21:38:00,64.9,53.7,29.99,North,0,0.0,0.0,67,0.00,,,0.01,WeatherCatV1.15B25,2013-10-10 02:38:00,
2013-10-09 21:43:00,64.8,53.6,29.99,North,0,0.0,0.0,67,0.00,,,0.01,WeatherCatV1.15B25,2013-10-10 02:43:00,
2013-10-09 21:48:00,64.7,53.5,30.00,North,0,0.0,0.0,67,0.00,,,0.01,WeatherCatV1.15B25,2013-10-10 02:48:00,
2013-10-09 21:53:00,64.6,53.4,30.00,North,0,0.0,0.0,67,0.00,,,0.01,WeatherCatV1.15B25,2013-10-10 02:53:00,
2013-10-09 21:58:00,64.4,53.2,30.00,North,0,0.0,0.0,67,0.00,,,0.01,WeatherCatV1.15B25,2013-10-10 02:58:00,
2013-10-09 22:03:00,64.1,52.9,30.00,North,0,0.0,0.0,67,0.00,,,0.01,WeatherCatV1.15B25,2013-10-10 03:03:00,
2013-10-09 22:08:00,63.9,52.7,30.00,North,0,0.0,0.0,67,0.00,,,0.01,WeatherCatV1.15B25,2013-10-10 03:08:00,
2013-10-09 22:13:00,63.6,52.4,30.00,North,0,0.0,0.0,67,0.00,,,0.01,WeatherCatV1.15B25,2013-10-10 03:13:00,
2013-10-09 22:18:00,63.3,52.2,30.01,North,0,0.0,0.0,67,0.00,,,0.01,WeatherCatV1.15B25,2013-10-10 03:18:00,
2013-10-09 22:23:00,63.1,52.4,30.01,North,0,0.0,0.0,68,0.00,,,0.01,WeatherCatV1.15B25,2013-10-10 03:23:00,
2013-10-09 22:28:00,62.9,52.2,30.00,North,0,0.0,0.0,68,0.00,,,0.01,WeatherCatV1.15B25,2013-10-10 03:28:00,
2013-10-09 22:33:00,62.8,52.1,30.01,North,0,0.0,0.0,68,0.00,,,0.01,WeatherCatV1.15B25,2013-10-10 03:33:00,
2013-10-09 22:38:00,62.7,52.0,30.01,North,0,0.0,0.0,68,0.00,,,0.01,WeatherCatV1.15B25,2013-10-10 03:38:00,
2013-10-09 22:43:00,62.6,52.3,30.01,North,0,0.0,0.0,69,0.00,,,0.01,WeatherCatV1.15B25,2013-10-10 03:43:00,
2013-10-09 22:48:00,62.6,52.3,30.01,North,0,0.0,0.0,69,0.00,,,0.01,WeatherCatV1.15B25,2013-10-10 03:48:00,
2013-10-09 22:53:00,62.5,52.2,30.01,North,0,0.0,0.0,69,0.00,,,0.01,WeatherCatV1.15B25,2013-10-10 03:53:00,
2013-10-09 22:58:00,62.3,52.0,30.01,North,0,0.0,0.0,69,0.00,,,0.01,WeatherCatV1.15B25,2013-10-10 03:58:00,
2013-10-09 23:01:00,62.2,51.9,30.01,North,0,0.0,0.0,69,0.00,,,0.01,WeatherCatV1.15B25,2013-10-10 04:01:00,
2013-10-09 23:02:00,62.2,51.9,30.01,North,0,0.0,0.0,69,0.00,,,0.01,WeatherCatV1.15B25,2013-10-10 04:02:00,
2013-10-09 23:07:00,62.0,51.7,30.02,North,0,0.0,0.0,69,0.00,,,0.01,WeatherCatV1.15B25,2013-10-10 04:07:00,
2013-10-09 23:12:00,61.8,51.5,30.01,North,0,0.0,0.0,69,0.00,,,0.01,WeatherCatV1.15B25,2013-10-10 04:12:00,
2013-10-09 23:17:00,61.6,51.3,30.01,North,0,0.0,0.0,69,0.00,,,0.01,WeatherCatV1.15B25,2013-10-10 04:17:00,
2013-10-09 23:22:00,61.4,51.1,30.01,North,0,0.0,0.0,69,0.00,,,0.01,WeatherCatV1.15B25,2013-10-10 04:22:00,
2013-10-09 23:27:00,61.3,51.0,30.02,North,0,0.0,0.0,69,0.00,,,0.01,WeatherCatV1.15B25,2013-10-10 04:27:00,
2013-10-09 23:32:00,61.2,51.3,30.01,North,0,0.0,0.0,70,0.00,,,0.01,WeatherCatV1.15B25,2013-10-10 04:32:00,
2013-10-09 23:37:00,61.0,51.1,30.02,North,0,0.0,0.0,70,0.00,,,0.01,WeatherCatV1.15B25,2013-10-10 04:37:00,
2013-10-09 23:42:00,60.9,51.0,30.02,North,0,0.0,0.0,70,0.00,,,0.01,WeatherCatV1.15B25,2013-10-10 04:42:00,
2013-10-09 23:47:00,60.8,51.3,30.02,North,0,0.0,0.0,71,0.00,,,0.01,WeatherCatV1.15B25,2013-10-10 04:47:00,
2013-10-09 23:52:00,60.7,51.2,30.02,North,0,0.0,0.0,71,0.00,,,0.01,WeatherCatV1.15B25,2013-10-10 04:52:00,
2013-10-09 23:57:00,60.5,51.0,30.02,North,0,0.0,0.0,71,0.00,,,0.01,WeatherCatV1.15B25,2013-10-10 04:57:00,